createdAt,value
2022-08-11T00:03:43.194Z,102401.16
2022-08-11T00:08:50.489Z,102396.47
2022-08-11T00:13:52.342Z,102394.84
2022-08-11T00:18:55.879Z,102394.31
2022-08-11T00:24:00.618Z,102402.81
2022-08-11T00:29:12.418Z,102397.75
2022-08-11T00:34:16.102Z,102398.59
2022-08-11T00:39:21.417Z,102399.72
2022-08-11T00:44:55.585Z,102408.56
2022-08-11T00:50:34.738Z,102406.09
2022-08-11T00:56:11.433Z,102399.75
2022-08-11T01:01:15.755Z,102397.47
2022-08-11T01:06:55.157Z,102395.75
2022-08-11T01:12:05.428Z,102390.53
2022-08-11T01:17:46.494Z,102401.34
2022-08-11T01:23:08.198Z,102407.91
2022-08-11T01:28:26.173Z,102406.88
2022-08-11T01:33:55.616Z,102398.84
2022-08-11T01:39:25.300Z,102397.13
2022-08-11T01:45:00.656Z,102389.56
2022-08-11T01:50:10.971Z,102394.34
2022-08-11T01:55:26.720Z,102390.44
2022-08-11T02:00:32.898Z,102391.97
2022-08-11T02:06:02.710Z,102388.66
2022-08-11T02:11:31.119Z,102384.03
2022-08-11T02:17:01.728Z,102386.25
2022-08-11T02:22:27.211Z,102383.84
2022-08-11T02:27:43.368Z,102378.88
2022-08-11T02:33:16.442Z,102379.66
2022-08-11T02:38:48.799Z,102382.41
2022-08-11T02:43:59.600Z,102377.06
2022-08-11T02:49:22.971Z,102365.31
2022-08-11T02:54:50.507Z,102358.84
2022-08-11T02:59:56.463Z,102350.25
2022-08-11T03:05:20.153Z,102353.44
2022-08-11T03:10:43.133Z,102357.16
2022-08-11T03:16:11.458Z,102362.66
2022-08-11T03:21:23.639Z,102365.69
2022-08-11T03:26:29.572Z,102365.63
2022-08-11T03:31:36.803Z,102363.22
2022-08-11T03:37:15.753Z,102353.56
2022-08-11T03:42:40.805Z,102356.81
2022-08-11T03:48:00.413Z,102356.31
2022-08-11T03:53:28.017Z,102357.25
2022-08-11T03:58:41.953Z,102357.38
2022-08-11T04:04:06.417Z,102358.78
2022-08-11T04:09:52.326Z,102354.66
2022-08-11T04:15:48.092Z,102353.63
2022-08-11T04:21:18.114Z,102361.91
2022-08-11T04:26:54.971Z,102348.28
2022-08-11T04:32:21.366Z,102348.09
2022-08-11T04:37:41.792Z,102338.13
2022-08-11T04:43:04.638Z,102340.75
2022-08-11T04:49:02.249Z,102334.06
2022-08-11T04:54:50.470Z,102339.88
2022-08-11T05:00:20.030Z,102347.88
2022-08-11T05:05:58.724Z,102339.13
2022-08-11T05:11:21.897Z,102345.63
2022-08-11T05:16:48.271Z,102341.22
2022-08-11T05:22:14.097Z,102339.38
2022-08-11T05:27:37.778Z,102338.59
2022-08-11T05:33:02.262Z,102357.75
2022-08-11T05:38:28.042Z,102360.63
2022-08-11T05:44:21.114Z,102368.09
2022-08-11T05:49:28.879Z,102373.03
2022-08-11T05:54:54.478Z,102371.44
2022-08-11T06:00:10.350Z,102378.13
2022-08-11T06:05:12.986Z,102371.59
2022-08-11T06:10:24.161Z,102365.00
2022-08-11T06:15:26.462Z,102363.19
2022-08-11T06:20:32.775Z,102365.06
2022-08-11T06:25:36.233Z,102365.47
2022-08-11T06:30:40.429Z,102373.09
2022-08-11T06:36:07.593Z,102352.53
2022-08-11T06:41:32.656Z,102350.88
2022-08-11T06:46:38.956Z,102364.22
2022-08-11T06:51:41.727Z,102357.00
2022-08-11T07:02:46.361Z,102362.38
2022-08-11T07:08:37.283Z,102348.91
2022-08-11T07:13:59.116Z,102355.53
2022-08-11T07:19:26.675Z,102346.53
2022-08-11T07:24:59.256Z,102353.59
2022-08-11T07:30:09.769Z,102345.47
2022-08-11T07:35:13.654Z,102353.81
2022-08-11T07:40:21.726Z,102346.31
2022-08-11T07:45:44.117Z,102343.09
2022-08-11T07:51:05.359Z,102356.59
2022-08-11T07:56:07.859Z,102357.38
2022-08-11T08:01:36.685Z,102359.06
2022-08-11T08:06:58.310Z,102345.88
2022-08-11T08:12:20.674Z,102347.69
2022-08-11T08:17:42.111Z,102355.56
2022-08-11T08:22:47.950Z,102364.09
2022-08-11T08:27:51.065Z,102364.22
2022-08-11T08:32:53.591Z,102370.41
2022-08-11T08:37:55.512Z,102374.69
2022-08-11T08:43:03.264Z,102364.41
2022-08-11T08:48:16.778Z,102362.44
2022-08-11T08:53:22.880Z,102355.94
2022-08-11T08:58:25.858Z,102354.84
2022-08-11T09:04:06.605Z,102359.16
2022-08-11T09:08:51.917Z,102348.16
2022-08-11T09:14:05.701Z,102350.00
2022-08-11T09:19:09.099Z,102345.63
2022-08-11T09:24:30.554Z,102344.59
2022-08-11T09:29:33.068Z,102346.31
2022-08-11T09:34:37.075Z,102348.75
2022-08-11T09:40:00.286Z,102343.59
2022-08-11T09:45:02.256Z,102346.69
2022-08-11T09:50:05.117Z,102335.63
2022-08-11T09:55:11.220Z,102338.88
2022-08-11T10:00:14.072Z,102340.69
2022-08-11T10:05:38.045Z,102340.19
2022-08-11T10:10:40.951Z,102340.66
2022-08-11T10:15:59.698Z,102337.28
2022-08-11T10:21:34.551Z,102331.94
2022-08-11T10:27:08.504Z,102329.72
2022-08-11T10:32:32.607Z,102325.78
2022-08-11T10:38:07.441Z,102323.13
2022-08-11T10:43:06.819Z,102312.19
2022-08-11T10:48:14.901Z,102309.66
2022-08-11T10:53:37.947Z,102317.28
2022-08-11T10:58:49.625Z,102306.91
2022-08-11T11:03:55.255Z,102305.41
2022-08-11T11:09:17.316Z,102301.28
2022-08-11T11:14:47.830Z,102296.75
2022-08-11T11:19:57.937Z,102298.72
2022-08-11T11:25:23.390Z,102294.59
2022-08-11T11:30:32.864Z,102294.69
2022-08-11T11:35:49.500Z,102287.31
2022-08-11T11:41:11.418Z,102282.16
2022-08-11T11:46:13.945Z,102280.28
2022-08-11T11:51:15.843Z,102276.16
2022-08-11T11:56:18.577Z,102271.13
2022-08-11T12:01:22.232Z,102281.75
2022-08-11T12:06:25.472Z,102270.09
2022-08-11T12:11:46.854Z,102269.56
2022-08-11T12:16:49.188Z,102262.50
2022-08-11T12:22:11.249Z,102274.00
2022-08-11T12:27:24.137Z,102263.13
2022-08-11T12:32:30.842Z,102242.38
2022-08-11T12:37:39.165Z,102246.88
2022-08-11T12:43:00.237Z,102240.97
2022-08-11T12:48:58.828Z,102237.75
2022-08-11T12:53:57.184Z,102233.66
2022-08-11T12:59:19.067Z,102230.28
2022-08-11T13:04:39.608Z,102228.81
2022-08-11T13:09:44.230Z,102226.78
2022-08-11T13:14:45.961Z,102226.00
2022-08-11T13:19:49.589Z,102215.13
2022-08-11T13:24:55.169Z,102209.69
2022-08-11T13:30:16.023Z,102212.06
2022-08-11T13:35:18.327Z,102214.09
2022-08-11T13:40:33.281Z,102199.75
2022-08-11T13:45:47.579Z,102206.78
2022-08-11T13:51:07.922Z,102195.97
2022-08-11T13:56:09.618Z,102207.28
2022-08-11T14:02:03.351Z,102199.63
2022-08-11T14:06:35.560Z,102196.75
2022-08-11T14:12:20.467Z,102193.94
2022-08-11T14:17:38.424Z,102184.66
2022-08-11T14:22:46.468Z,102176.31
2022-08-11T14:28:31.146Z,102177.34
2022-08-11T14:33:16.516Z,102177.84
2022-08-11T14:38:19.923Z,102169.31
2022-08-11T14:44:14.217Z,102162.16
2022-08-11T14:49:02.070Z,102152.69
2022-08-11T14:54:22.870Z,102143.59
2022-08-11T14:59:24.843Z,102139.59
2022-08-11T15:04:36.083Z,102132.22
2022-08-11T15:10:09.839Z,102130.16
2022-08-11T15:15:27.211Z,102130.47
2022-08-11T15:20:48.553Z,102121.13
2022-08-11T15:25:56.789Z,102123.94
2022-08-11T15:31:20.570Z,102114.41
2022-08-11T15:36:42.271Z,102105.66
2022-08-11T15:42:33.537Z,102105.91
2022-08-11T15:47:41.362Z,102097.41
2022-08-11T15:53:17.920Z,102097.81
2022-08-11T15:58:39.008Z,102085.09
2022-08-11T16:04:12.584Z,102079.41
2022-08-11T16:09:18.528Z,102078.56
2022-08-11T16:14:46.062Z,102070.06
2022-08-11T16:19:51.596Z,102071.75
2022-08-11T16:27:03.084Z,102062.13
2022-08-11T16:30:16.214Z,102059.00
2022-08-11T16:35:38.772Z,102058.75
2022-08-11T16:40:42.581Z,102051.09
2022-08-11T16:46:04.970Z,102051.94
2022-08-11T16:51:08.165Z,102055.59
2022-08-11T16:56:14.254Z,102046.06
2022-08-11T17:01:20.310Z,102045.47
2022-08-11T17:06:41.538Z,102042.41
2022-08-11T17:12:08.925Z,102044.88
2022-08-11T17:17:26.218Z,102042.59
2022-08-11T17:22:48.836Z,102040.78
2022-08-11T17:27:52.005Z,102041.19
2022-08-11T17:33:12.158Z,102038.78
2022-08-11T17:38:18.797Z,102033.81
2022-08-11T17:43:38.825Z,102043.19
2022-08-11T17:48:47.881Z,102048.06
2022-08-11T17:54:24.088Z,102041.66
2022-08-11T17:59:49.133Z,102047.91
2022-08-11T18:04:52.648Z,102047.03
2022-08-11T18:10:12.790Z,102043.16
2022-08-11T18:15:33.135Z,102043.19
2022-08-11T18:20:54.960Z,102044.63
2022-08-11T18:26:19.486Z,102049.47
2022-08-11T18:31:40.813Z,102050.91
2022-08-11T18:37:21.716Z,102050.44
2022-08-11T18:42:45.345Z,102048.13
2022-08-11T18:48:09.327Z,102052.38
2022-08-11T18:53:33.461Z,102060.25
2022-08-11T18:58:57.795Z,102062.19
2022-08-11T19:04:20.630Z,102064.88
2022-08-11T19:09:40.798Z,102062.78
2022-08-11T19:15:03.055Z,102066.53
2022-08-11T19:20:26.679Z,102071.13
2022-08-11T19:25:50.616Z,102073.13
2022-08-11T19:31:13.485Z,102078.81
2022-08-11T19:36:34.570Z,102079.59
2022-08-11T19:41:57.928Z,102082.03
2022-08-11T19:47:20.273Z,102091.78
2022-08-11T19:52:40.885Z,102095.88
2022-08-11T19:58:02.493Z,102090.38
2022-08-11T20:03:27.092Z,102095.31
2022-08-11T20:08:49.464Z,102095.69
2022-08-11T20:14:13.790Z,102096.47
2022-08-11T20:19:55.972Z,102099.50
2022-08-11T20:25:17.502Z,102102.56
2022-08-11T20:30:37.878Z,102105.19
2022-08-11T20:35:58.168Z,102104.44
2022-08-11T20:41:20.490Z,102102.53
2022-08-11T20:46:43.901Z,102103.41
2022-08-11T20:52:06.243Z,102099.59
2022-08-11T20:57:58.683Z,102093.00
2022-08-11T21:03:08.174Z,102093.88
2022-08-11T21:08:30.128Z,102101.66
2022-08-11T21:13:55.653Z,102101.06
2022-08-11T21:19:59.752Z,102098.78
2022-08-11T21:25:10.197Z,102100.78
2022-08-11T21:30:30.628Z,102100.13
2022-08-11T21:35:51.951Z,102093.53
2022-08-11T21:41:13.158Z,102102.56
2022-08-11T21:46:36.482Z,102098.50
2022-08-11T21:51:56.718Z,102097.28
2022-08-11T21:57:17.892Z,102097.69
2022-08-11T22:02:39.011Z,102088.09
2022-08-11T22:07:59.139Z,102093.00
2022-08-11T22:13:19.495Z,102088.28
2022-08-11T22:18:40.770Z,102091.31
2022-08-11T22:24:02.784Z,102090.09
2022-08-11T22:29:49.906Z,102084.53
2022-08-11T22:35:03.549Z,102088.44
2022-08-11T22:40:25.459Z,102077.97
2022-08-11T22:45:45.269Z,102082.69
2022-08-11T22:51:05.675Z,102085.09
2022-08-11T22:56:32.810Z,102079.53
2022-08-11T23:01:56.261Z,102090.41
2022-08-11T23:07:51.406Z,102088.72
2022-08-11T23:13:01.265Z,102085.31
2022-08-11T23:18:22.994Z,102086.63
2022-08-11T23:23:44.900Z,102088.34
2022-08-11T23:29:05.189Z,102087.72
2022-08-11T23:34:39.419Z,102099.31
2022-08-11T23:40:11.135Z,102086.47
2022-08-11T23:45:33.127Z,102097.81
2022-08-11T23:50:53.995Z,102096.94
2022-08-11T23:56:14.318Z,102095.47
